sensor_id;sensor_type;location;lat;lon;timestamp;temperature;humidity
6256;DHT22;3161;48.794;9.784;2023-05-10T00:00:27;15.90;99.90
6256;DHT22;3161;48.794;9.784;2023-05-10T00:02:55;15.90;99.90
6256;DHT22;3161;48.794;9.784;2023-05-10T00:05:22;15.90;99.90
6256;DHT22;3161;48.794;9.784;2023-05-10T00:07:50;15.90;99.90
6256;DHT22;3161;48.794;9.784;2023-05-10T00:10:18;15.90;99.90
6256;DHT22;3161;48.794;9.784;2023-05-10T00:12:46;15.90;99.90
6256;DHT22;3161;48.794;9.784;2023-05-10T00:15:13;15.90;99.90
6256;DHT22;3161;48.794;9.784;2023-05-10T00:17:41;15.90;99.90
6256;DHT22;3161;48.794;9.784;2023-05-10T00:20:09;15.90;99.90
6256;DHT22;3161;48.794;9.784;2023-05-10T00:22:37;15.90;99.90
6256;DHT22;3161;48.794;9.784;2023-05-10T00:25:06;15.80;99.90
6256;DHT22;3161;48.794;9.784;2023-05-10T00:27:33;15.80;99.90
6256;DHT22;3161;48.794;9.784;2023-05-10T00:30:01;15.80;99.90
6256;DHT22;3161;48.794;9.784;2023-05-10T00:32:29;15.80;99.90
6256;DHT22;3161;48.794;9.784;2023-05-10T00:34:57;15.80;99.90
6256;DHT22;3161;48.794;9.784;2023-05-10T00:37:24;15.80;99.90
6256;DHT22;3161;48.794;9.784;2023-05-10T00:39:52;15.80;99.90
6256;DHT22;3161;48.794;9.784;2023-05-10T00:42:19;15.80;99.90
6256;DHT22;3161;48.794;9.784;2023-05-10T00:44:47;15.80;99.90
6256;DHT22;3161;48.794;9.784;2023-05-10T00:47:16;15.80;99.90
6256;DHT22;3161;48.794;9.784;2023-05-10T00:49:44;15.80;99.90
6256;DHT22;3161;48.794;9.784;2023-05-10T00:52:12;15.70;99.90
6256;DHT22;3161;48.794;9.784;2023-05-10T00:54:40;15.70;99.90
6256;DHT22;3161;48.794;9.784;2023-05-10T00:57:08;15.60;99.90
6256;DHT22;3161;48.794;9.784;2023-05-10T00:59:35;15.60;99.90
6256;DHT22;3161;48.794;9.784;2023-05-10T01:02:03;15.60;99.90
6256;DHT22;3161;48.794;9.784;2023-05-10T01:04:31;15.60;99.90
6256;DHT22;3161;48.794;9.784;2023-05-10T01:06:59;15.60;99.90
6256;DHT22;3161;48.794;9.784;2023-05-10T01:12:52;15.50;99.90
6256;DHT22;3161;48.794;9.784;2023-05-10T01:15:20;15.40;99.90
6256;DHT22;3161;48.794;9.784;2023-05-10T01:17:49;15.40;99.90
6256;DHT22;3161;48.794;9.784;2023-05-10T01:20:17;15.30;99.90
6256;DHT22;3161;48.794;9.784;2023-05-10T01:26:03;15.10;99.90
6256;DHT22;3161;48.794;9.784;2023-05-10T01:31:28;14.90;99.90
6256;DHT22;3161;48.794;9.784;2023-05-10T01:34:01;14.80;99.90
6256;DHT22;3161;48.794;9.784;2023-05-10T01:36:31;14.80;99.90
6256;DHT22;3161;48.794;9.784;2023-05-10T01:39:17;14.80;99.90
6256;DHT22;3161;48.794;9.784;2023-05-10T01:42:03;14.70;99.90
6256;DHT22;3161;48.794;9.784;2023-05-10T01:47:23;14.70;99.90
6256;DHT22;3161;48.794;9.784;2023-05-10T01:49:56;14.60;99.90
6256;DHT22;3161;48.794;9.784;2023-05-10T01:52:36;14.60;99.90
6256;DHT22;3161;48.794;9.784;2023-05-10T01:55:08;14.60;99.90
6256;DHT22;3161;48.794;9.784;2023-05-10T01:57:37;14.50;99.90
6256;DHT22;3161;48.794;9.784;2023-05-10T02:00:07;14.50;99.90
6256;DHT22;3161;48.794;9.784;2023-05-10T02:02:37;14.50;99.90
6256;DHT22;3161;48.794;9.784;2023-05-10T02:05:07;14.50;99.90
6256;DHT22;3161;48.794;9.784;2023-05-10T02:07:36;14.50;99.90
6256;DHT22;3161;48.794;9.784;2023-05-10T02:10:06;14.50;99.90
6256;DHT22;3161;48.794;9.784;2023-05-10T02:12:44;14.50;99.90
6256;DHT22;3161;48.794;9.784;2023-05-10T02:15:08;14.40;99.90
6256;DHT22;3161;48.794;9.784;2023-05-10T02:17:37;14.40;99.90
6256;DHT22;3161;48.794;9.784;2023-05-10T02:20:07;14.40;99.90
6256;DHT22;3161;48.794;9.784;2023-05-10T02:22:36;14.40;99.90
6256;DHT22;3161;48.794;9.784;2023-05-10T02:25:05;14.40;99.90
6256;DHT22;3161;48.794;9.784;2023-05-10T02:27:34;14.30;99.90
6256;DHT22;3161;48.794;9.784;2023-05-10T02:30:02;14.30;99.90
6256;DHT22;3161;48.794;9.784;2023-05-10T02:32:31;14.30;99.90
6256;DHT22;3161;48.794;9.784;2023-05-10T02:35:00;14.30;99.90
6256;DHT22;3161;48.794;9.784;2023-05-10T02:37:29;14.30;99.90
6256;DHT22;3161;48.794;9.784;2023-05-10T02:39:57;14.20;99.90
6256;DHT22;3161;48.794;9.784;2023-05-10T02:42:27;14.20;99.90
6256;DHT22;3161;48.794;9.784;2023-05-10T02:44:59;14.20;99.90
6256;DHT22;3161;48.794;9.784;2023-05-10T02:47:25;14.20;99.90
6256;DHT22;3161;48.794;9.784;2023-05-10T02:49:53;14.20;99.90
6256;DHT22;3161;48.794;9.784;2023-05-10T02:52:26;14.20;99.90
6256;DHT22;3161;48.794;9.784;2023-05-10T02:55:00;14.20;99.90
6256;DHT22;3161;48.794;9.784;2023-05-10T03:00:28;14.30;99.90
6256;DHT22;3161;48.794;9.784;2023-05-10T03:02:56;14.20;99.90
6256;DHT22;3161;48.794;9.784;2023-05-10T03:05:24;14.20;99.90
6256;DHT22;3161;48.794;9.784;2023-05-10T03:07:52;14.20;99.90
6256;DHT22;3161;48.794;9.784;2023-05-10T03:10:22;14.20;99.90
6256;DHT22;3161;48.794;9.784;2023-05-10T03:13:11;14.30;99.90
6256;DHT22;3161;48.794;9.784;2023-05-10T03:15:47;14.20;99.90
6256;DHT22;3161;48.794;9.784;2023-05-10T03:18:28;14.10;99.90
6256;DHT22;3161;48.794;9.784;2023-05-10T03:20:59;14.10;99.90
6256;DHT22;3161;48.794;9.784;2023-05-10T03:23:50;14.00;99.90
6256;DHT22;3161;48.794;9.784;2023-05-10T03:26:22;14.00;99.90
6256;DHT22;3161;48.794;9.784;2023-05-10T03:29:10;14.00;99.90
6256;DHT22;3161;48.794;9.784;2023-05-10T03:31:38;14.00;99.90
6256;DHT22;3161;48.794;9.784;2023-05-10T03:34:06;14.00;99.90
6256;DHT22;3161;48.794;9.784;2023-05-10T03:36:34;14.00;99.90
6256;DHT22;3161;48.794;9.784;2023-05-10T03:39:01;14.10;99.90
6256;DHT22;3161;48.794;9.784;2023-05-10T03:41:29;14.10;99.90
6256;DHT22;3161;48.794;9.784;2023-05-10T03:43:57;14.10;99.90
6256;DHT22;3161;48.794;9.784;2023-05-10T03:46:24;14.00;99.90
6256;DHT22;3161;48.794;9.784;2023-05-10T03:48:52;14.00;99.90
6256;DHT22;3161;48.794;9.784;2023-05-10T03:51:20;14.10;99.90
6256;DHT22;3161;48.794;9.784;2023-05-10T03:53:47;14.10;99.90
6256;DHT22;3161;48.794;9.784;2023-05-10T03:56:15;14.10;99.90
6256;DHT22;3161;48.794;9.784;2023-05-10T03:58:42;14.10;99.90
6256;DHT22;3161;48.794;9.784;2023-05-10T04:01:10;14.10;99.90
6256;DHT22;3161;48.794;9.784;2023-05-10T04:03:37;14.10;99.90
6256;DHT22;3161;48.794;9.784;2023-05-10T04:06:05;14.10;99.90
6256;DHT22;3161;48.794;9.784;2023-05-10T04:08:34;14.10;99.90
6256;DHT22;3161;48.794;9.784;2023-05-10T04:11:11;14.10;99.90
6256;DHT22;3161;48.794;9.784;2023-05-10T04:13:35;14.10;99.90
6256;DHT22;3161;48.794;9.784;2023-05-10T04:16:03;14.10;99.90
6256;DHT22;3161;48.794;9.784;2023-05-10T04:18:31;14.10;99.90
6256;DHT22;3161;48.794;9.784;2023-05-10T04:20:58;14.10;99.90
6256;DHT22;3161;48.794;9.784;2023-05-10T04:23:27;14.20;99.90
6256;DHT22;3161;48.794;9.784;2023-05-10T04:26:02;14.20;99.90
6256;DHT22;3161;48.794;9.784;2023-05-10T04:28:30;14.20;99.90
6256;DHT22;3161;48.794;9.784;2023-05-10T04:31:08;14.20;99.90
6256;DHT22;3161;48.794;9.784;2023-05-10T04:33:36;14.20;99.90
6256;DHT22;3161;48.794;9.784;2023-05-10T04:36:04;14.20;99.90
6256;DHT22;3161;48.794;9.784;2023-05-10T04:38:32;14.20;99.90
6256;DHT22;3161;48.794;9.784;2023-05-10T04:41:07;14.30;99.90
6256;DHT22;3161;48.794;9.784;2023-05-10T04:43:37;14.30;99.90
6256;DHT22;3161;48.794;9.784;2023-05-10T04:46:05;14.40;99.90
6256;DHT22;3161;48.794;9.784;2023-05-10T04:48:33;14.40;99.90
6256;DHT22;3161;48.794;9.784;2023-05-10T04:51:01;14.40;99.90
6256;DHT22;3161;48.794;9.784;2023-05-10T04:53:30;14.50;99.90
6256;DHT22;3161;48.794;9.784;2023-05-10T04:55:58;14.50;99.90
6256;DHT22;3161;48.794;9.784;2023-05-10T04:58:25;14.50;99.90
6256;DHT22;3161;48.794;9.784;2023-05-10T05:00:53;14.60;99.90
6256;DHT22;3161;48.794;9.784;2023-05-10T05:03:20;14.60;99.90
6256;DHT22;3161;48.794;9.784;2023-05-10T05:05:48;14.60;99.90
6256;DHT22;3161;48.794;9.784;2023-05-10T05:08:16;14.70;99.90
6256;DHT22;3161;48.794;9.784;2023-05-10T05:10:44;14.70;99.90
6256;DHT22;3161;48.794;9.784;2023-05-10T05:13:13;14.70;99.90
6256;DHT22;3161;48.794;9.784;2023-05-10T05:15:40;14.70;99.90
6256;DHT22;3161;48.794;9.784;2023-05-10T05:18:08;14.70;99.90
6256;DHT22;3161;48.794;9.784;2023-05-10T05:20:35;14.80;99.90
6256;DHT22;3161;48.794;9.784;2023-05-10T05:23:03;14.80;99.90
6256;DHT22;3161;48.794;9.784;2023-05-10T05:25:31;14.80;99.90
6256;DHT22;3161;48.794;9.784;2023-05-10T05:27:58;14.80;99.90
6256;DHT22;3161;48.794;9.784;2023-05-10T05:30:26;14.90;99.90
6256;DHT22;3161;48.794;9.784;2023-05-10T05:32:54;14.90;99.90
6256;DHT22;3161;48.794;9.784;2023-05-10T05:35:21;15.00;99.90
6256;DHT22;3161;48.794;9.784;2023-05-10T05:37:48;15.00;99.90
6256;DHT22;3161;48.794;9.784;2023-05-10T05:40:16;15.10;99.90
6256;DHT22;3161;48.794;9.784;2023-05-10T05:42:44;15.10;99.90
6256;DHT22;3161;48.794;9.784;2023-05-10T05:45:11;15.10;99.90
6256;DHT22;3161;48.794;9.784;2023-05-10T05:47:42;15.10;99.90
6256;DHT22;3161;48.794;9.784;2023-05-10T05:50:10;15.10;99.90
6256;DHT22;3161;48.794;9.784;2023-05-10T05:52:37;15.10;99.90
6256;DHT22;3161;48.794;9.784;2023-05-10T05:55:05;15.10;99.90
6256;DHT22;3161;48.794;9.784;2023-05-10T05:57:32;15.10;99.90
6256;DHT22;3161;48.794;9.784;2023-05-10T06:00:00;15.10;99.90
6256;DHT22;3161;48.794;9.784;2023-05-10T06:02:29;15.10;99.90
6256;DHT22;3161;48.794;9.784;2023-05-10T06:04:56;15.20;99.90
6256;DHT22;3161;48.794;9.784;2023-05-10T06:07:24;15.20;99.90
6256;DHT22;3161;48.794;9.784;2023-05-10T06:09:52;15.20;99.90
6256;DHT22;3161;48.794;9.784;2023-05-10T06:12:19;15.20;99.90
6256;DHT22;3161;48.794;9.784;2023-05-10T06:14:47;15.20;99.90
6256;DHT22;3161;48.794;9.784;2023-05-10T06:17:14;15.20;99.90
6256;DHT22;3161;48.794;9.784;2023-05-10T06:19:42;15.30;99.90
6256;DHT22;3161;48.794;9.784;2023-05-10T06:22:10;15.30;99.90
6256;DHT22;3161;48.794;9.784;2023-05-10T06:24:37;15.40;99.90
6256;DHT22;3161;48.794;9.784;2023-05-10T06:27:05;15.40;99.90
6256;DHT22;3161;48.794;9.784;2023-05-10T06:29:33;15.50;99.90
6256;DHT22;3161;48.794;9.784;2023-05-10T06:32:00;15.50;99.90
6256;DHT22;3161;48.794;9.784;2023-05-10T06:34:28;15.50;99.90
6256;DHT22;3161;48.794;9.784;2023-05-10T06:36:56;15.50;99.90
6256;DHT22;3161;48.794;9.784;2023-05-10T06:39:23;15.40;99.90
6256;DHT22;3161;48.794;9.784;2023-05-10T06:41:51;15.40;99.90
6256;DHT22;3161;48.794;9.784;2023-05-10T06:44:19;15.40;99.90
6256;DHT22;3161;48.794;9.784;2023-05-10T06:46:46;15.40;99.90
6256;DHT22;3161;48.794;9.784;2023-05-10T06:49:14;15.40;99.90
6256;DHT22;3161;48.794;9.784;2023-05-10T06:51:43;15.40;99.90
6256;DHT22;3161;48.794;9.784;2023-05-10T06:54:11;15.40;99.90
6256;DHT22;3161;48.794;9.784;2023-05-10T06:56:39;15.30;99.90
6256;DHT22;3161;48.794;9.784;2023-05-10T06:59:06;15.20;99.90
6256;DHT22;3161;48.794;9.784;2023-05-10T07:01:34;15.20;99.90
6256;DHT22;3161;48.794;9.784;2023-05-10T07:04:01;15.10;99.90
6256;DHT22;3161;48.794;9.784;2023-05-10T07:06:29;15.10;99.90
6256;DHT22;3161;48.794;9.784;2023-05-10T07:08:57;15.10;99.90
6256;DHT22;3161;48.794;9.784;2023-05-10T07:11:24;15.10;99.90
6256;DHT22;3161;48.794;9.784;2023-05-10T07:13:53;15.10;99.90
6256;DHT22;3161;48.794;9.784;2023-05-10T07:16:20;15.10;99.90
6256;DHT22;3161;48.794;9.784;2023-05-10T07:18:48;15.10;99.90
6256;DHT22;3161;48.794;9.784;2023-05-10T07:21:17;15.00;99.90
6256;DHT22;3161;48.794;9.784;2023-05-10T07:23:44;15.00;99.90
6256;DHT22;3161;48.794;9.784;2023-05-10T07:26:12;15.00;99.90
6256;DHT22;3161;48.794;9.784;2023-05-10T07:28:41;15.00;99.90
6256;DHT22;3161;48.794;9.784;2023-05-10T07:31:09;15.00;99.90
6256;DHT22;3161;48.794;9.784;2023-05-10T07:33:38;15.00;99.90
6256;DHT22;3161;48.794;9.784;2023-05-10T07:36:05;14.90;99.90
6256;DHT22;3161;48.794;9.784;2023-05-10T07:38:33;14.90;99.90
6256;DHT22;3161;48.794;9.784;2023-05-10T07:41:00;14.90;99.90
6256;DHT22;3161;48.794;9.784;2023-05-10T07:43:28;14.90;99.90
6256;DHT22;3161;48.794;9.784;2023-05-10T07:45:55;15.00;99.90
6256;DHT22;3161;48.794;9.784;2023-05-10T07:48:24;15.00;99.90
6256;DHT22;3161;48.794;9.784;2023-05-10T07:50:51;15.00;99.90
6256;DHT22;3161;48.794;9.784;2023-05-10T07:53:19;15.10;99.90
6256;DHT22;3161;48.794;9.784;2023-05-10T07:55:56;15.20;99.90
6256;DHT22;3161;48.794;9.784;2023-05-10T07:58:24;15.20;99.90
6256;DHT22;3161;48.794;9.784;2023-05-10T08:00:52;15.20;99.90
6256;DHT22;3161;48.794;9.784;2023-05-10T08:03:20;15.20;99.90
6256;DHT22;3161;48.794;9.784;2023-05-10T08:05:47;15.20;99.90
6256;DHT22;3161;48.794;9.784;2023-05-10T08:08:15;15.20;99.90
6256;DHT22;3161;48.794;9.784;2023-05-10T08:10:43;15.30;99.90
6256;DHT22;3161;48.794;9.784;2023-05-10T08:13:10;15.30;99.90
6256;DHT22;3161;48.794;9.784;2023-05-10T08:15:38;15.30;99.90
6256;DHT22;3161;48.794;9.784;2023-05-10T08:18:06;15.40;99.90
6256;DHT22;3161;48.794;9.784;2023-05-10T08:20:33;15.50;99.90
6256;DHT22;3161;48.794;9.784;2023-05-10T08:23:08;15.70;99.90
6256;DHT22;3161;48.794;9.784;2023-05-10T08:25:35;15.80;99.90
6256;DHT22;3161;48.794;9.784;2023-05-10T08:28:03;16.00;99.90
6256;DHT22;3161;48.794;9.784;2023-05-10T08:30:30;16.10;99.90
6256;DHT22;3161;48.794;9.784;2023-05-10T08:32:58;16.20;99.90
6256;DHT22;3161;48.794;9.784;2023-05-10T08:35:26;16.20;99.90
6256;DHT22;3161;48.794;9.784;2023-05-10T08:37:53;16.20;99.90
6256;DHT22;3161;48.794;9.784;2023-05-10T08:40:21;16.20;99.90
6256;DHT22;3161;48.794;9.784;2023-05-10T08:45:31;16.40;99.90
6256;DHT22;3161;48.794;9.784;2023-05-10T08:48:01;16.50;99.90
6256;DHT22;3161;48.794;9.784;2023-05-10T08:50:30;16.60;99.90
6256;DHT22;3161;48.794;9.784;2023-05-10T08:53:00;16.60;99.90
6256;DHT22;3161;48.794;9.784;2023-05-10T08:55:29;16.60;99.90
6256;DHT22;3161;48.794;9.784;2023-05-10T08:57:57;16.60;99.90
6256;DHT22;3161;48.794;9.784;2023-05-10T09:00:24;16.70;99.90
6256;DHT22;3161;48.794;9.784;2023-05-10T09:02:52;16.80;99.90
6256;DHT22;3161;48.794;9.784;2023-05-10T09:05:20;16.80;99.90
6256;DHT22;3161;48.794;9.784;2023-05-10T09:07:48;16.80;99.90
6256;DHT22;3161;48.794;9.784;2023-05-10T09:10:16;16.70;99.90
6256;DHT22;3161;48.794;9.784;2023-05-10T09:12:44;16.60;99.90
6256;DHT22;3161;48.794;9.784;2023-05-10T09:15:16;16.60;99.90
6256;DHT22;3161;48.794;9.784;2023-05-10T09:17:46;16.50;99.90
6256;DHT22;3161;48.794;9.784;2023-05-10T09:20:14;16.50;99.90
6256;DHT22;3161;48.794;9.784;2023-05-10T09:22:44;16.50;99.90
6256;DHT22;3161;48.794;9.784;2023-05-10T09:25:16;16.50;99.90
6256;DHT22;3161;48.794;9.784;2023-05-10T09:27:46;16.50;99.90
6256;DHT22;3161;48.794;9.784;2023-05-10T09:30:28;16.50;99.90
6256;DHT22;3161;48.794;9.784;2023-05-10T09:32:48;16.50;99.90
6256;DHT22;3161;48.794;9.784;2023-05-10T09:35:18;16.50;99.90
6256;DHT22;3161;48.794;9.784;2023-05-10T09:37:49;16.40;99.90
6256;DHT22;3161;48.794;9.784;2023-05-10T09:40:18;16.40;99.90
6256;DHT22;3161;48.794;9.784;2023-05-10T09:43:08;16.40;99.90
6256;DHT22;3161;48.794;9.784;2023-05-10T09:45:37;16.40;99.90
6256;DHT22;3161;48.794;9.784;2023-05-10T09:48:05;16.40;99.90
6256;DHT22;3161;48.794;9.784;2023-05-10T09:50:32;16.40;99.90
6256;DHT22;3161;48.794;9.784;2023-05-10T09:53:02;16.40;99.90
6256;DHT22;3161;48.794;9.784;2023-05-10T09:55:44;16.40;99.90
6256;DHT22;3161;48.794;9.784;2023-05-10T09:58:13;16.40;99.90
6256;DHT22;3161;48.794;9.784;2023-05-10T10:00:42;16.40;99.90
6256;DHT22;3161;48.794;9.784;2023-05-10T10:03:15;16.40;99.90
6256;DHT22;3161;48.794;9.784;2023-05-10T10:05:44;16.50;99.90
6256;DHT22;3161;48.794;9.784;2023-05-10T10:08:13;16.60;99.90
6256;DHT22;3161;48.794;9.784;2023-05-10T10:10:41;16.70;99.90
6256;DHT22;3161;48.794;9.784;2023-05-10T10:13:11;16.70;99.90
6256;DHT22;3161;48.794;9.784;2023-05-10T10:15:39;16.80;99.90
6256;DHT22;3161;48.794;9.784;2023-05-10T10:18:07;16.90;99.90
6256;DHT22;3161;48.794;9.784;2023-05-10T10:20:36;16.90;99.90
6256;DHT22;3161;48.794;9.784;2023-05-10T10:23:04;17.00;99.90
6256;DHT22;3161;48.794;9.784;2023-05-10T10:25:32;17.00;99.90
6256;DHT22;3161;48.794;9.784;2023-05-10T10:28:16;17.00;99.90
6256;DHT22;3161;48.794;9.784;2023-05-10T10:30:47;17.00;99.90
6256;DHT22;3161;48.794;9.784;2023-05-10T10:36:00;17.10;99.90
6256;DHT22;3161;48.794;9.784;2023-05-10T10:41:36;17.20;99.90
6256;DHT22;3161;48.794;9.784;2023-05-10T10:49:43;17.10;99.90
6256;DHT22;3161;48.794;9.784;2023-05-10T10:52:22;17.10;99.90
6256;DHT22;3161;48.794;9.784;2023-05-10T10:57:27;17.10;99.90
6256;DHT22;3161;48.794;9.784;2023-05-10T11:00:18;17.10;99.90
6256;DHT22;3161;48.794;9.784;2023-05-10T11:08:28;17.20;99.90
6256;DHT22;3161;48.794;9.784;2023-05-10T11:13:38;17.20;99.90
6256;DHT22;3161;48.794;9.784;2023-05-10T11:16:14;17.30;99.90
6256;DHT22;3161;48.794;9.784;2023-05-10T11:19:02;17.30;99.90
6256;DHT22;3161;48.794;9.784;2023-05-10T11:21:31;17.30;99.90
6256;DHT22;3161;48.794;9.784;2023-05-10T11:24:00;17.30;99.90
6256;DHT22;3161;48.794;9.784;2023-05-10T11:26:34;17.30;99.90
6256;DHT22;3161;48.794;9.784;2023-05-10T11:29:02;17.20;99.90
6256;DHT22;3161;48.794;9.784;2023-05-10T11:31:31;17.20;99.90
6256;DHT22;3161;48.794;9.784;2023-05-10T11:34:00;17.10;99.90
6256;DHT22;3161;48.794;9.784;2023-05-10T11:36:32;17.00;99.90
6256;DHT22;3161;48.794;9.784;2023-05-10T11:38:58;16.90;99.90
6256;DHT22;3161;48.794;9.784;2023-05-10T11:41:28;16.80;99.90
6256;DHT22;3161;48.794;9.784;2023-05-10T11:43:56;16.60;99.90
6256;DHT22;3161;48.794;9.784;2023-05-10T11:46:26;16.60;99.90
6256;DHT22;3161;48.794;9.784;2023-05-10T11:49:02;16.60;99.90
6256;DHT22;3161;48.794;9.784;2023-05-10T11:51:37;16.60;99.90
6256;DHT22;3161;48.794;9.784;2023-05-10T11:54:08;16.50;99.90
6256;DHT22;3161;48.794;9.784;2023-05-10T11:56:40;16.60;99.90
6256;DHT22;3161;48.794;9.784;2023-05-10T11:59:08;16.70;99.90
6256;DHT22;3161;48.794;9.784;2023-05-10T12:01:36;16.80;99.90
6256;DHT22;3161;48.794;9.784;2023-05-10T12:04:04;16.80;99.90
6256;DHT22;3161;48.794;9.784;2023-05-10T12:06:40;16.90;99.90
6256;DHT22;3161;48.794;9.784;2023-05-10T12:09:07;17.00;99.90
6256;DHT22;3161;48.794;9.784;2023-05-10T12:11:37;17.10;99.90
6256;DHT22;3161;48.794;9.784;2023-05-10T12:14:07;17.20;99.90
6256;DHT22;3161;48.794;9.784;2023-05-10T12:16:36;17.30;99.90
6256;DHT22;3161;48.794;9.784;2023-05-10T12:19:03;17.30;99.90
6256;DHT22;3161;48.794;9.784;2023-05-10T12:21:32;17.40;99.90
6256;DHT22;3161;48.794;9.784;2023-05-10T12:24:02;17.40;99.90
6256;DHT22;3161;48.794;9.784;2023-05-10T12:26:31;17.50;99.90
6256;DHT22;3161;48.794;9.784;2023-05-10T12:29:18;17.50;99.90
6256;DHT22;3161;48.794;9.784;2023-05-10T12:31:56;17.40;99.90
6256;DHT22;3161;48.794;9.784;2023-05-10T12:34:32;17.30;99.90
6256;DHT22;3161;48.794;9.784;2023-05-10T12:37:01;17.20;99.90
6256;DHT22;3161;48.794;9.784;2023-05-10T12:39:40;17.10;99.90
6256;DHT22;3161;48.794;9.784;2023-05-10T12:42:08;17.00;99.90
6256;DHT22;3161;48.794;9.784;2023-05-10T12:44:35;16.90;99.90
6256;DHT22;3161;48.794;9.784;2023-05-10T12:47:03;16.80;99.90
6256;DHT22;3161;48.794;9.784;2023-05-10T12:49:31;16.80;99.90
6256;DHT22;3161;48.794;9.784;2023-05-10T12:51:59;16.70;99.90
6256;DHT22;3161;48.794;9.784;2023-05-10T12:54:26;16.50;99.90
6256;DHT22;3161;48.794;9.784;2023-05-10T12:56:54;16.40;99.90
6256;DHT22;3161;48.794;9.784;2023-05-10T12:59:21;16.20;99.90
6256;DHT22;3161;48.794;9.784;2023-05-10T13:01:49;16.00;99.90
6256;DHT22;3161;48.794;9.784;2023-05-10T13:04:16;15.90;99.90
6256;DHT22;3161;48.794;9.784;2023-05-10T13:06:44;15.70;99.90
6256;DHT22;3161;48.794;9.784;2023-05-10T13:09:11;15.60;99.90
6256;DHT22;3161;48.794;9.784;2023-05-10T13:11:39;15.60;99.90
6256;DHT22;3161;48.794;9.784;2023-05-10T13:14:07;15.60;99.90
6256;DHT22;3161;48.794;9.784;2023-05-10T13:16:34;15.50;99.90
6256;DHT22;3161;48.794;9.784;2023-05-10T13:19:02;15.40;99.90
6256;DHT22;3161;48.794;9.784;2023-05-10T13:21:29;15.40;99.90
6256;DHT22;3161;48.794;9.784;2023-05-10T13:23:57;15.40;99.90
6256;DHT22;3161;48.794;9.784;2023-05-10T13:26:24;15.40;99.90
6256;DHT22;3161;48.794;9.784;2023-05-10T13:28:52;15.40;99.90
6256;DHT22;3161;48.794;9.784;2023-05-10T13:31:21;15.40;99.90
6256;DHT22;3161;48.794;9.784;2023-05-10T13:33:49;15.40;99.90
6256;DHT22;3161;48.794;9.784;2023-05-10T13:36:16;15.40;99.90
6256;DHT22;3161;48.794;9.784;2023-05-10T13:38:44;15.30;99.90
6256;DHT22;3161;48.794;9.784;2023-05-10T13:41:12;15.30;99.90
6256;DHT22;3161;48.794;9.784;2023-05-10T13:43:39;15.30;99.90
6256;DHT22;3161;48.794;9.784;2023-05-10T13:46:07;15.30;99.90
6256;DHT22;3161;48.794;9.784;2023-05-10T13:48:35;15.30;99.90
6256;DHT22;3161;48.794;9.784;2023-05-10T13:51:03;15.20;99.90
6256;DHT22;3161;48.794;9.784;2023-05-10T13:53:31;15.30;99.90
6256;DHT22;3161;48.794;9.784;2023-05-10T13:55:58;15.40;99.90
6256;DHT22;3161;48.794;9.784;2023-05-10T13:58:26;15.40;99.90
6256;DHT22;3161;48.794;9.784;2023-05-10T14:00:53;15.50;99.90
6256;DHT22;3161;48.794;9.784;2023-05-10T14:03:21;15.50;99.90
6256;DHT22;3161;48.794;9.784;2023-05-10T14:05:48;15.60;99.90
6256;DHT22;3161;48.794;9.784;2023-05-10T14:08:17;15.60;99.90
6256;DHT22;3161;48.794;9.784;2023-05-10T14:10:44;15.70;99.90
6256;DHT22;3161;48.794;9.784;2023-05-10T14:13:12;15.80;99.90
6256;DHT22;3161;48.794;9.784;2023-05-10T14:15:39;15.90;99.90
6256;DHT22;3161;48.794;9.784;2023-05-10T14:18:07;15.90;99.90
6256;DHT22;3161;48.794;9.784;2023-05-10T14:20:35;15.90;99.90
6256;DHT22;3161;48.794;9.784;2023-05-10T14:23:02;16.00;99.90
6256;DHT22;3161;48.794;9.784;2023-05-10T14:25:30;16.00;99.90
6256;DHT22;3161;48.794;9.784;2023-05-10T14:27:57;16.00;99.90
6256;DHT22;3161;48.794;9.784;2023-05-10T14:33:20;15.90;99.90
6256;DHT22;3161;48.794;9.784;2023-05-10T14:35:48;15.80;99.90
6256;DHT22;3161;48.794;9.784;2023-05-10T14:38:16;15.80;99.90
6256;DHT22;3161;48.794;9.784;2023-05-10T14:40:43;15.80;99.90
6256;DHT22;3161;48.794;9.784;2023-05-10T14:43:11;15.90;99.90
6256;DHT22;3161;48.794;9.784;2023-05-10T14:45:39;15.90;99.90
6256;DHT22;3161;48.794;9.784;2023-05-10T14:48:06;15.90;99.90
6256;DHT22;3161;48.794;9.784;2023-05-10T14:50:35;16.00;99.90
6256;DHT22;3161;48.794;9.784;2023-05-10T14:53:03;16.00;99.90
6256;DHT22;3161;48.794;9.784;2023-05-10T14:55:30;16.00;99.90
6256;DHT22;3161;48.794;9.784;2023-05-10T14:57:59;16.10;99.90
6256;DHT22;3161;48.794;9.784;2023-05-10T15:00:27;16.10;99.90
6256;DHT22;3161;48.794;9.784;2023-05-10T15:02:55;16.20;99.90
6256;DHT22;3161;48.794;9.784;2023-05-10T15:05:23;16.20;99.90
6256;DHT22;3161;48.794;9.784;2023-05-10T15:07:50;16.30;99.90
6256;DHT22;3161;48.794;9.784;2023-05-10T15:10:18;16.30;99.90
6256;DHT22;3161;48.794;9.784;2023-05-10T15:12:46;16.20;99.90
6256;DHT22;3161;48.794;9.784;2023-05-10T15:15:13;16.30;99.90
6256;DHT22;3161;48.794;9.784;2023-05-10T15:17:41;16.30;99.90
6256;DHT22;3161;48.794;9.784;2023-05-10T15:20:09;16.40;99.90
6256;DHT22;3161;48.794;9.784;2023-05-10T15:22:37;16.40;99.90
6256;DHT22;3161;48.794;9.784;2023-05-10T15:25:05;16.40;99.90
6256;DHT22;3161;48.794;9.784;2023-05-10T15:27:33;16.50;99.90
6256;DHT22;3161;48.794;9.784;2023-05-10T15:30:00;16.50;99.90
6256;DHT22;3161;48.794;9.784;2023-05-10T15:32:28;16.40;99.90
6256;DHT22;3161;48.794;9.784;2023-05-10T15:34:56;16.40;99.90
6256;DHT22;3161;48.794;9.784;2023-05-10T15:37:23;16.40;99.90
6256;DHT22;3161;48.794;9.784;2023-05-10T15:39:51;16.40;99.90
6256;DHT22;3161;48.794;9.784;2023-05-10T15:42:18;16.30;99.90
6256;DHT22;3161;48.794;9.784;2023-05-10T15:44:46;16.30;99.90
6256;DHT22;3161;48.794;9.784;2023-05-10T15:47:15;16.20;99.90
6256;DHT22;3161;48.794;9.784;2023-05-10T15:49:43;16.20;99.90
6256;DHT22;3161;48.794;9.784;2023-05-10T15:52:10;16.20;99.90
6256;DHT22;3161;48.794;9.784;2023-05-10T15:54:39;16.20;99.90
6256;DHT22;3161;48.794;9.784;2023-05-10T15:57:07;16.20;99.90
6256;DHT22;3161;48.794;9.784;2023-05-10T15:59:34;16.20;99.90
6256;DHT22;3161;48.794;9.784;2023-05-10T16:02:03;16.10;99.90
6256;DHT22;3161;48.794;9.784;2023-05-10T16:04:31;16.10;99.90
6256;DHT22;3161;48.794;9.784;2023-05-10T16:06:58;16.10;99.90
6256;DHT22;3161;48.794;9.784;2023-05-10T16:09:26;16.10;99.90
6256;DHT22;3161;48.794;9.784;2023-05-10T16:11:54;16.10;99.90
6256;DHT22;3161;48.794;9.784;2023-05-10T16:14:22;16.10;99.90
6256;DHT22;3161;48.794;9.784;2023-05-10T16:16:50;16.10;99.90
6256;DHT22;3161;48.794;9.784;2023-05-10T16:19:22;16.00;99.90
6256;DHT22;3161;48.794;9.784;2023-05-10T16:21:49;16.00;99.90
6256;DHT22;3161;48.794;9.784;2023-05-10T16:24:17;16.00;99.90
6256;DHT22;3161;48.794;9.784;2023-05-10T16:26:45;16.00;99.90
6256;DHT22;3161;48.794;9.784;2023-05-10T16:29:13;16.00;99.90
6256;DHT22;3161;48.794;9.784;2023-05-10T16:31:40;16.00;99.90
6256;DHT22;3161;48.794;9.784;2023-05-10T16:34:08;16.00;99.90
6256;DHT22;3161;48.794;9.784;2023-05-10T16:36:35;16.00;99.90
6256;DHT22;3161;48.794;9.784;2023-05-10T16:39:03;15.90;99.90
6256;DHT22;3161;48.794;9.784;2023-05-10T16:41:34;15.90;99.90
6256;DHT22;3161;48.794;9.784;2023-05-10T16:44:01;15.90;99.90
6256;DHT22;3161;48.794;9.784;2023-05-10T16:46:29;15.90;99.90
6256;DHT22;3161;48.794;9.784;2023-05-10T16:48:57;15.90;99.90
6256;DHT22;3161;48.794;9.784;2023-05-10T16:51:26;15.90;99.90
6256;DHT22;3161;48.794;9.784;2023-05-10T16:53:54;15.80;99.90
6256;DHT22;3161;48.794;9.784;2023-05-10T16:56:26;15.90;99.90